sensor_id;sensor_type;location;lat;lon;timestamp;P1;durP1;ratioP1;P2;durP2;ratioP2
13698;SDS011;6921;53.642;9.956;2022-08-05T00:01:51;16.02;;;6.97;;
13698;SDS011;6921;53.642;9.956;2022-08-05T00:03:54;11.10;;;6.10;;
13698;SDS011;6921;53.642;9.956;2022-08-05T00:05:57;10.90;;;6.43;;
13698;SDS011;6921;53.642;9.956;2022-08-05T00:08:04;14.65;;;7.43;;
13698;SDS011;6921;53.642;9.956;2022-08-05T00:10:21;14.65;;;6.97;;
13698;SDS011;6921;53.642;9.956;2022-08-05T00:12:27;14.63;;;7.70;;
13698;SDS011;6921;53.642;9.956;2022-08-05T00:14:30;11.38;;;6.50;;
13698;SDS011;6921;53.642;9.956;2022-08-05T00:16:34;10.55;;;6.47;;
13698;SDS011;6921;53.642;9.956;2022-08-05T00:18:53;11.35;;;6.38;;
13698;SDS011;6921;53.642;9.956;2022-08-05T00:20:56;10.45;;;6.07;;
13698;SDS011;6921;53.642;9.956;2022-08-05T00:23:00;11.35;;;5.50;;
13698;SDS011;6921;53.642;9.956;2022-08-05T00:25:13;7.68;;;5.60;;
13698;SDS011;6921;53.642;9.956;2022-08-05T00:27:17;8.52;;;5.28;;
13698;SDS011;6921;53.642;9.956;2022-08-05T00:29:21;9.40;;;5.22;;
13698;SDS011;6921;53.642;9.956;2022-08-05T00:31:25;7.88;;;4.93;;
13698;SDS011;6921;53.642;9.956;2022-08-05T00:33:41;8.45;;;5.20;;
13698;SDS011;6921;53.642;9.956;2022-08-05T00:36:08;8.85;;;4.88;;
13698;SDS011;6921;53.642;9.956;2022-08-05T00:38:15;6.22;;;4.32;;
13698;SDS011;6921;53.642;9.956;2022-08-05T00:40:18;6.63;;;4.35;;
13698;SDS011;6921;53.642;9.956;2022-08-05T00:42:29;7.22;;;4.82;;
13698;SDS011;6921;53.642;9.956;2022-08-05T00:44:33;8.73;;;4.07;;
13698;SDS011;6921;53.642;9.956;2022-08-05T00:46:36;4.93;;;3.63;;
13698;SDS011;6921;53.642;9.956;2022-08-05T00:48:43;8.52;;;4.20;;
13698;SDS011;6921;53.642;9.956;2022-08-05T00:50:50;6.50;;;4.00;;
13698;SDS011;6921;53.642;9.956;2022-08-05T00:52:54;5.90;;;3.92;;
13698;SDS011;6921;53.642;9.956;2022-08-05T00:54:57;8.18;;;3.90;;
13698;SDS011;6921;53.642;9.956;2022-08-05T00:57:00;7.82;;;3.92;;
13698;SDS011;6921;53.642;9.956;2022-08-05T00:59:05;4.20;;;3.08;;
13698;SDS011;6921;53.642;9.956;2022-08-05T01:01:09;6.38;;;3.55;;
13698;SDS011;6921;53.642;9.956;2022-08-05T01:03:12;4.78;;;3.30;;
13698;SDS011;6921;53.642;9.956;2022-08-05T01:05:23;3.88;;;3.30;;
13698;SDS011;6921;53.642;9.956;2022-08-05T01:07:27;6.70;;;3.42;;
13698;SDS011;6921;53.642;9.956;2022-08-05T01:09:32;6.20;;;3.80;;
13698;SDS011;6921;53.642;9.956;2022-08-05T01:11:35;6.78;;;3.22;;
13698;SDS011;6921;53.642;9.956;2022-08-05T01:13:42;4.07;;;3.08;;
13698;SDS011;6921;53.642;9.956;2022-08-05T01:16:01;4.03;;;2.83;;
13698;SDS011;6921;53.642;9.956;2022-08-05T01:18:05;5.93;;;3.40;;
13698;SDS011;6921;53.642;9.956;2022-08-05T01:20:12;6.88;;;3.13;;
13698;SDS011;6921;53.642;9.956;2022-08-05T01:22:23;4.03;;;3.00;;
13698;SDS011;6921;53.642;9.956;2022-08-05T01:24:34;6.63;;;3.55;;
13698;SDS011;6921;53.642;9.956;2022-08-05T01:26:47;5.32;;;3.08;;
13698;SDS011;6921;53.642;9.956;2022-08-05T01:28:56;4.82;;;3.42;;
13698;SDS011;6921;53.642;9.956;2022-08-05T01:31:06;6.00;;;3.20;;
13698;SDS011;6921;53.642;9.956;2022-08-05T01:33:11;6.75;;;3.10;;
13698;SDS011;6921;53.642;9.956;2022-08-05T01:35:21;3.70;;;2.55;;
13698;SDS011;6921;53.642;9.956;2022-08-05T01:37:48;4.22;;;3.15;;
13698;SDS011;6921;53.642;9.956;2022-08-05T01:39:53;3.97;;;2.90;;
13698;SDS011;6921;53.642;9.956;2022-08-05T01:41:59;4.90;;;2.72;;
13698;SDS011;6921;53.642;9.956;2022-08-05T01:44:05;4.53;;;2.80;;
13698;SDS011;6921;53.642;9.956;2022-08-05T01:46:10;5.38;;;3.25;;
13698;SDS011;6921;53.642;9.956;2022-08-05T01:48:16;4.15;;;2.47;;
13698;SDS011;6921;53.642;9.956;2022-08-05T01:50:23;4.47;;;2.60;;
13698;SDS011;6921;53.642;9.956;2022-08-05T01:52:29;4.50;;;2.60;;
13698;SDS011;6921;53.642;9.956;2022-08-05T01:54:36;2.85;;;2.58;;
13698;SDS011;6921;53.642;9.956;2022-08-05T01:56:46;4.95;;;3.03;;
13698;SDS011;6921;53.642;9.956;2022-08-05T01:59:13;4.25;;;3.08;;
13698;SDS011;6921;53.642;9.956;2022-08-05T02:01:18;2.63;;;2.42;;
13698;SDS011;6921;53.642;9.956;2022-08-05T02:03:24;4.20;;;3.00;;
13698;SDS011;6921;53.642;9.956;2022-08-05T02:05:30;2.88;;;2.47;;
13698;SDS011;6921;53.642;9.956;2022-08-05T02:07:36;4.90;;;2.80;;
13698;SDS011;6921;53.642;9.956;2022-08-05T02:09:39;6.95;;;2.80;;
13698;SDS011;6921;53.642;9.956;2022-08-05T02:11:44;3.22;;;2.63;;
13698;SDS011;6921;53.642;9.956;2022-08-05T02:13:53;5.50;;;2.83;;
13698;SDS011;6921;53.642;9.956;2022-08-05T02:16:00;6.20;;;2.53;;
13698;SDS011;6921;53.642;9.956;2022-08-05T02:18:05;2.55;;;2.33;;
13698;SDS011;6921;53.642;9.956;2022-08-05T02:20:30;3.22;;;2.58;;
13698;SDS011;6921;53.642;9.956;2022-08-05T02:22:41;3.20;;;2.58;;
13698;SDS011;6921;53.642;9.956;2022-08-05T02:24:46;4.53;;;2.42;;
13698;SDS011;6921;53.642;9.956;2022-08-05T02:26:52;2.90;;;2.60;;
13698;SDS011;6921;53.642;9.956;2022-08-05T02:28:56;4.28;;;2.50;;
13698;SDS011;6921;53.642;9.956;2022-08-05T02:31:02;3.75;;;2.40;;
13698;SDS011;6921;53.642;9.956;2022-08-05T02:33:07;3.70;;;2.55;;
13698;SDS011;6921;53.642;9.956;2022-08-05T02:35:13;5.20;;;2.50;;
13698;SDS011;6921;53.642;9.956;2022-08-05T02:37:19;3.92;;;2.70;;
13698;SDS011;6921;53.642;9.956;2022-08-05T02:39:23;3.85;;;2.50;;
13698;SDS011;6921;53.642;9.956;2022-08-05T02:41:27;6.22;;;2.80;;
13698;SDS011;6921;53.642;9.956;2022-08-05T02:43:36;5.15;;;2.60;;
13698;SDS011;6921;53.642;9.956;2022-08-05T02:46:02;3.25;;;2.45;;
13698;SDS011;6921;53.642;9.956;2022-08-05T02:48:06;4.93;;;2.60;;
13698;SDS011;6921;53.642;9.956;2022-08-05T02:50:13;7.53;;;3.00;;
13698;SDS011;6921;53.642;9.956;2022-08-05T02:52:18;9.30;;;3.45;;
13698;SDS011;6921;53.642;9.956;2022-08-05T02:54:26;4.13;;;3.08;;
13698;SDS011;6921;53.642;9.956;2022-08-05T02:56:35;6.55;;;3.50;;
13698;SDS011;6921;53.642;9.956;2022-08-05T02:58:38;5.20;;;3.70;;
13698;SDS011;6921;53.642;9.956;2022-08-05T03:00:44;8.85;;;4.32;;
13698;SDS011;6921;53.642;9.956;2022-08-05T03:02:49;7.85;;;4.10;;
13698;SDS011;6921;53.642;9.956;2022-08-05T03:04:53;7.40;;;4.32;;
13698;SDS011;6921;53.642;9.956;2022-08-05T03:06:56;7.05;;;4.35;;
13698;SDS011;6921;53.642;9.956;2022-08-05T03:09:00;5.93;;;3.70;;
13698;SDS011;6921;53.642;9.956;2022-08-05T03:11:05;7.65;;;4.68;;
13698;SDS011;6921;53.642;9.956;2022-08-05T03:13:38;5.63;;;3.92;;
13698;SDS011;6921;53.642;9.956;2022-08-05T03:15:52;8.18;;;4.78;;
13698;SDS011;6921;53.642;9.956;2022-08-05T03:17:57;7.78;;;4.25;;
13698;SDS011;6921;53.642;9.956;2022-08-05T03:20:00;5.78;;;4.05;;
13698;SDS011;6921;53.642;9.956;2022-08-05T03:22:03;11.40;;;4.50;;
13698;SDS011;6921;53.642;9.956;2022-08-05T03:24:17;6.63;;;4.45;;
13698;SDS011;6921;53.642;9.956;2022-08-05T03:26:27;8.23;;;5.07;;
13698;SDS011;6921;53.642;9.956;2022-08-05T03:28:32;7.00;;;4.90;;
13698;SDS011;6921;53.642;9.956;2022-08-05T03:30:36;7.63;;;4.50;;
13698;SDS011;6921;53.642;9.956;2022-08-05T03:32:41;6.07;;;4.90;;
13698;SDS011;6921;53.642;9.956;2022-08-05T03:34:46;6.97;;;4.50;;
13698;SDS011;6921;53.642;9.956;2022-08-05T03:36:51;7.03;;;4.65;;
13698;SDS011;6921;53.642;9.956;2022-08-05T03:38:54;7.13;;;4.78;;
13698;SDS011;6921;53.642;9.956;2022-08-05T03:40:58;11.68;;;4.85;;
13698;SDS011;6921;53.642;9.956;2022-08-05T03:43:04;8.63;;;5.63;;
13698;SDS011;6921;53.642;9.956;2022-08-05T03:45:16;7.28;;;4.70;;
13698;SDS011;6921;53.642;9.956;2022-08-05T03:47:22;6.80;;;5.35;;
13698;SDS011;6921;53.642;9.956;2022-08-05T03:49:26;5.18;;;4.68;;
13698;SDS011;6921;53.642;9.956;2022-08-05T03:51:34;8.40;;;4.95;;
13698;SDS011;6921;53.642;9.956;2022-08-05T03:53:59;8.00;;;5.15;;
13698;SDS011;6921;53.642;9.956;2022-08-05T03:56:29;5.47;;;4.47;;
13698;SDS011;6921;53.642;9.956;2022-08-05T03:58:35;6.88;;;5.55;;
13698;SDS011;6921;53.642;9.956;2022-08-05T04:00:41;7.18;;;5.05;;
13698;SDS011;6921;53.642;9.956;2022-08-05T04:02:47;9.10;;;5.05;;
13698;SDS011;6921;53.642;9.956;2022-08-05T04:04:52;6.50;;;5.15;;
13698;SDS011;6921;53.642;9.956;2022-08-05T04:06:57;7.60;;;4.90;;
13698;SDS011;6921;53.642;9.956;2022-08-05T04:09:01;7.90;;;5.10;;
13698;SDS011;6921;53.642;9.956;2022-08-05T04:11:06;7.35;;;5.00;;
13698;SDS011;6921;53.642;9.956;2022-08-05T04:13:10;8.68;;;5.20;;
13698;SDS011;6921;53.642;9.956;2022-08-05T04:15:13;6.68;;;4.78;;
13698;SDS011;6921;53.642;9.956;2022-08-05T04:17:16;6.78;;;5.15;;
13698;SDS011;6921;53.642;9.956;2022-08-05T04:19:20;11.13;;;5.82;;
13698;SDS011;6921;53.642;9.956;2022-08-05T04:21:23;7.53;;;5.60;;
13698;SDS011;6921;53.642;9.956;2022-08-05T04:23:48;7.00;;;5.07;;
13698;SDS011;6921;53.642;9.956;2022-08-05T04:25:58;8.98;;;5.43;;
13698;SDS011;6921;53.642;9.956;2022-08-05T04:28:02;8.23;;;5.68;;
13698;SDS011;6921;53.642;9.956;2022-08-05T04:30:11;8.88;;;6.00;;
13698;SDS011;6921;53.642;9.956;2022-08-05T04:32:15;9.77;;;5.95;;
13698;SDS011;6921;53.642;9.956;2022-08-05T04:34:20;6.45;;;5.45;;
13698;SDS011;6921;53.642;9.956;2022-08-05T04:36:33;7.10;;;5.53;;
13698;SDS011;6921;53.642;9.956;2022-08-05T04:38:39;5.93;;;5.13;;
13698;SDS011;6921;53.642;9.956;2022-08-05T04:40:43;6.18;;;5.57;;
13698;SDS011;6921;53.642;9.956;2022-08-05T04:42:48;7.97;;;6.05;;
13698;SDS011;6921;53.642;9.956;2022-08-05T04:44:51;6.78;;;5.65;;
13698;SDS011;6921;53.642;9.956;2022-08-05T04:46:54;7.45;;;5.50;;
13698;SDS011;6921;53.642;9.956;2022-08-05T04:48:58;10.90;;;5.60;;
13698;SDS011;6921;53.642;9.956;2022-08-05T04:51:02;9.50;;;6.00;;
13698;SDS011;6921;53.642;9.956;2022-08-05T04:53:12;8.80;;;6.00;;
13698;SDS011;6921;53.642;9.956;2022-08-05T04:55:15;8.55;;;6.15;;
13698;SDS011;6921;53.642;9.956;2022-08-05T04:57:22;8.23;;;5.60;;
13698;SDS011;6921;53.642;9.956;2022-08-05T04:59:29;11.55;;;5.88;;
13698;SDS011;6921;53.642;9.956;2022-08-05T05:01:37;8.13;;;5.72;;
13698;SDS011;6921;53.642;9.956;2022-08-05T05:03:59;7.70;;;6.20;;
13698;SDS011;6921;53.642;9.956;2022-08-05T05:06:03;8.02;;;6.45;;
13698;SDS011;6921;53.642;9.956;2022-08-05T05:08:27;7.97;;;5.70;;
13698;SDS011;6921;53.642;9.956;2022-08-05T05:10:31;6.80;;;6.18;;
13698;SDS011;6921;53.642;9.956;2022-08-05T05:12:36;10.02;;;5.90;;
13698;SDS011;6921;53.642;9.956;2022-08-05T05:14:42;6.95;;;5.78;;
13698;SDS011;6921;53.642;9.956;2022-08-05T05:16:49;8.38;;;6.15;;
13698;SDS011;6921;53.642;9.956;2022-08-05T05:18:53;8.63;;;5.80;;
13698;SDS011;6921;53.642;9.956;2022-08-05T05:21:16;8.80;;;5.70;;
13698;SDS011;6921;53.642;9.956;2022-08-05T05:23:19;7.85;;;5.70;;
13698;SDS011;6921;53.642;9.956;2022-08-05T05:25:23;7.78;;;6.10;;
13698;SDS011;6921;53.642;9.956;2022-08-05T05:27:33;6.65;;;6.03;;
13698;SDS011;6921;53.642;9.956;2022-08-05T05:29:43;7.07;;;6.25;;
13698;SDS011;6921;53.642;9.956;2022-08-05T05:32:05;10.23;;;6.45;;
13698;SDS011;6921;53.642;9.956;2022-08-05T05:34:13;8.02;;;6.38;;
13698;SDS011;6921;53.642;9.956;2022-08-05T05:36:19;6.43;;;5.68;;
13698;SDS011;6921;53.642;9.956;2022-08-05T05:38:22;11.35;;;5.85;;
13698;SDS011;6921;53.642;9.956;2022-08-05T05:40:28;8.90;;;6.22;;
13698;SDS011;6921;53.642;9.956;2022-08-05T05:42:32;8.52;;;6.82;;
13698;SDS011;6921;53.642;9.956;2022-08-05T05:44:35;6.88;;;6.18;;
13698;SDS011;6921;53.642;9.956;2022-08-05T05:46:44;8.98;;;6.93;;
13698;SDS011;6921;53.642;9.956;2022-08-05T05:48:48;9.18;;;6.63;;
13698;SDS011;6921;53.642;9.956;2022-08-05T05:50:51;8.00;;;6.15;;
13698;SDS011;6921;53.642;9.956;2022-08-05T05:52:54;9.85;;;6.38;;
13698;SDS011;6921;53.642;9.956;2022-08-05T05:54:58;7.95;;;6.55;;
13698;SDS011;6921;53.642;9.956;2022-08-05T05:57:02;9.05;;;6.45;;
13698;SDS011;6921;53.642;9.956;2022-08-05T05:59:05;9.55;;;6.70;;
13698;SDS011;6921;53.642;9.956;2022-08-05T06:01:09;7.78;;;6.65;;
13698;SDS011;6921;53.642;9.956;2022-08-05T06:03:15;8.82;;;6.50;;
13698;SDS011;6921;53.642;9.956;2022-08-05T06:05:28;7.50;;;6.70;;
13698;SDS011;6921;53.642;9.956;2022-08-05T06:07:32;9.70;;;6.88;;
13698;SDS011;6921;53.642;9.956;2022-08-05T06:09:42;8.68;;;6.53;;
13698;SDS011;6921;53.642;9.956;2022-08-05T06:11:54;8.10;;;6.95;;
13698;SDS011;6921;53.642;9.956;2022-08-05T06:14:00;10.68;;;7.35;;
13698;SDS011;6921;53.642;9.956;2022-08-05T06:16:03;8.75;;;6.97;;
13698;SDS011;6921;53.642;9.956;2022-08-05T06:18:28;10.77;;;6.63;;
13698;SDS011;6921;53.642;9.956;2022-08-05T06:20:32;9.13;;;6.78;;
13698;SDS011;6921;53.642;9.956;2022-08-05T06:22:35;12.82;;;6.65;;
13698;SDS011;6921;53.642;9.956;2022-08-05T06:24:41;8.25;;;6.32;;
13698;SDS011;6921;53.642;9.956;2022-08-05T06:26:46;11.48;;;6.60;;
13698;SDS011;6921;53.642;9.956;2022-08-05T06:28:52;8.23;;;6.13;;
13698;SDS011;6921;53.642;9.956;2022-08-05T06:30:56;7.90;;;6.03;;
13698;SDS011;6921;53.642;9.956;2022-08-05T06:32:59;8.48;;;6.00;;
13698;SDS011;6921;53.642;9.956;2022-08-05T06:35:04;12.02;;;6.38;;
13698;SDS011;6921;53.642;9.956;2022-08-05T06:37:15;7.43;;;5.68;;
13698;SDS011;6921;53.642;9.956;2022-08-05T06:39:39;7.15;;;6.05;;
13698;SDS011;6921;53.642;9.956;2022-08-05T06:41:42;8.40;;;6.05;;
13698;SDS011;6921;53.642;9.956;2022-08-05T06:43:45;8.25;;;5.80;;
13698;SDS011;6921;53.642;9.956;2022-08-05T06:45:52;6.65;;;5.40;;
13698;SDS011;6921;53.642;9.956;2022-08-05T06:48:04;6.50;;;5.10;;
13698;SDS011;6921;53.642;9.956;2022-08-05T06:50:14;6.30;;;5.07;;
13698;SDS011;6921;53.642;9.956;2022-08-05T06:52:17;7.78;;;5.45;;
13698;SDS011;6921;53.642;9.956;2022-08-05T06:54:37;6.22;;;4.97;;
13698;SDS011;6921;53.642;9.956;2022-08-05T06:56:41;7.47;;;5.20;;
13698;SDS011;6921;53.642;9.956;2022-08-05T06:58:54;6.20;;;5.30;;
13698;SDS011;6921;53.642;9.956;2022-08-05T07:00:58;7.22;;;5.30;;
13698;SDS011;6921;53.642;9.956;2022-08-05T07:03:01;8.30;;;4.95;;
13698;SDS011;6921;53.642;9.956;2022-08-05T07:05:05;5.15;;;4.50;;
13698;SDS011;6921;53.642;9.956;2022-08-05T07:07:13;4.47;;;4.07;;
13698;SDS011;6921;53.642;9.956;2022-08-05T07:09:16;5.28;;;3.72;;
13698;SDS011;6921;53.642;9.956;2022-08-05T07:11:19;5.68;;;4.63;;
13698;SDS011;6921;53.642;9.956;2022-08-05T07:13:25;6.30;;;4.10;;
13698;SDS011;6921;53.642;9.956;2022-08-05T07:15:59;6.15;;;4.38;;
13698;SDS011;6921;53.642;9.956;2022-08-05T07:18:40;7.93;;;4.38;;
13698;SDS011;6921;53.642;9.956;2022-08-05T07:20:48;6.30;;;4.07;;
13698;SDS011;6921;53.642;9.956;2022-08-05T07:22:52;5.20;;;4.38;;
13698;SDS011;6921;53.642;9.956;2022-08-05T07:24:56;4.80;;;3.97;;
13698;SDS011;6921;53.642;9.956;2022-08-05T07:27:20;5.50;;;3.60;;
13698;SDS011;6921;53.642;9.956;2022-08-05T07:29:23;5.38;;;3.53;;
13698;SDS011;6921;53.642;9.956;2022-08-05T07:31:47;4.47;;;3.95;;
13698;SDS011;6921;53.642;9.956;2022-08-05T07:33:55;4.63;;;4.22;;
13698;SDS011;6921;53.642;9.956;2022-08-05T07:36:00;7.13;;;4.20;;
13698;SDS011;6921;53.642;9.956;2022-08-05T07:38:21;4.57;;;3.50;;
13698;SDS011;6921;53.642;9.956;2022-08-05T07:40:25;4.80;;;3.75;;
13698;SDS011;6921;53.642;9.956;2022-08-05T07:42:33;4.25;;;3.38;;
13698;SDS011;6921;53.642;9.956;2022-08-05T07:44:37;4.57;;;3.60;;
13698;SDS011;6921;53.642;9.956;2022-08-05T07:46:40;4.13;;;3.60;;
13698;SDS011;6921;53.642;9.956;2022-08-05T07:48:46;6.13;;;4.13;;
13698;SDS011;6921;53.642;9.956;2022-08-05T07:51:03;4.70;;;3.70;;
13698;SDS011;6921;53.642;9.956;2022-08-05T07:53:08;4.43;;;3.83;;
13698;SDS011;6921;53.642;9.956;2022-08-05T07:55:14;10.13;;;4.68;;
13698;SDS011;6921;53.642;9.956;2022-08-05T07:57:38;5.45;;;4.00;;
13698;SDS011;6921;53.642;9.956;2022-08-05T07:59:42;5.45;;;4.28;;
13698;SDS011;6921;53.642;9.956;2022-08-05T08:01:47;4.32;;;3.92;;
13698;SDS011;6921;53.642;9.956;2022-08-05T08:03:52;6.10;;;4.45;;
13698;SDS011;6921;53.642;9.956;2022-08-05T08:05:55;5.35;;;4.20;;
13698;SDS011;6921;53.642;9.956;2022-08-05T08:07:59;7.72;;;4.70;;
13698;SDS011;6921;53.642;9.956;2022-08-05T08:10:03;6.45;;;4.07;;
13698;SDS011;6921;53.642;9.956;2022-08-05T08:12:08;5.43;;;3.92;;
13698;SDS011;6921;53.642;9.956;2022-08-05T08:14:33;5.78;;;4.10;;
13698;SDS011;6921;53.642;9.956;2022-08-05T08:16:37;6.57;;;4.00;;
13698;SDS011;6921;53.642;9.956;2022-08-05T08:18:51;4.72;;;3.88;;
13698;SDS011;6921;53.642;9.956;2022-08-05T08:20:54;4.53;;;3.45;;
13698;SDS011;6921;53.642;9.956;2022-08-05T08:23:01;4.05;;;3.65;;
13698;SDS011;6921;53.642;9.956;2022-08-05T08:25:05;5.13;;;3.70;;
13698;SDS011;6921;53.642;9.956;2022-08-05T08:27:17;5.13;;;4.22;;
13698;SDS011;6921;53.642;9.956;2022-08-05T08:29:20;5.75;;;3.90;;
13698;SDS011;6921;53.642;9.956;2022-08-05T08:31:44;4.47;;;4.05;;
13698;SDS011;6921;53.642;9.956;2022-08-05T08:33:48;7.45;;;4.07;;
13698;SDS011;6921;53.642;9.956;2022-08-05T08:35:53;4.75;;;3.95;;
13698;SDS011;6921;53.642;9.956;2022-08-05T08:38:16;7.03;;;3.85;;
13698;SDS011;6921;53.642;9.956;2022-08-05T08:40:33;5.20;;;4.18;;
13698;SDS011;6921;53.642;9.956;2022-08-05T08:42:38;4.30;;;3.83;;
13698;SDS011;6921;53.642;9.956;2022-08-05T08:44:51;4.40;;;4.00;;
13698;SDS011;6921;53.642;9.956;2022-08-05T08:47:15;4.47;;;3.55;;
13698;SDS011;6921;53.642;9.956;2022-08-05T08:49:23;4.93;;;3.97;;
13698;SDS011;6921;53.642;9.956;2022-08-05T08:51:47;4.18;;;3.75;;
13698;SDS011;6921;53.642;9.956;2022-08-05T08:54:05;5.80;;;3.70;;
13698;SDS011;6921;53.642;9.956;2022-08-05T08:56:08;6.15;;;3.80;;
13698;SDS011;6921;53.642;9.956;2022-08-05T08:58:14;4.13;;;3.50;;
13698;SDS011;6921;53.642;9.956;2022-08-05T09:00:18;4.55;;;3.53;;
13698;SDS011;6921;53.642;9.956;2022-08-05T09:02:21;3.42;;;3.13;;
13698;SDS011;6921;53.642;9.956;2022-08-05T09:04:27;5.00;;;3.38;;
13698;SDS011;6921;53.642;9.956;2022-08-05T09:06:31;3.45;;;3.15;;
13698;SDS011;6921;53.642;9.956;2022-08-05T09:08:36;3.90;;;3.20;;
13698;SDS011;6921;53.642;9.956;2022-08-05T09:10:40;5.40;;;3.60;;
13698;SDS011;6921;53.642;9.956;2022-08-05T09:12:47;4.97;;;3.53;;
13698;SDS011;6921;53.642;9.956;2022-08-05T09:14:52;5.03;;;3.67;;
13698;SDS011;6921;53.642;9.956;2022-08-05T09:16:59;4.05;;;3.60;;
13698;SDS011;6921;53.642;9.956;2022-08-05T09:19:03;4.13;;;3.58;;
13698;SDS011;6921;53.642;9.956;2022-08-05T09:21:07;5.72;;;3.65;;
13698;SDS011;6921;53.642;9.956;2022-08-05T09:23:12;6.18;;;3.92;;
13698;SDS011;6921;53.642;9.956;2022-08-05T09:25:20;4.82;;;4.00;;
13698;SDS011;6921;53.642;9.956;2022-08-05T09:27:31;3.58;;;3.35;;
13698;SDS011;6921;53.642;9.956;2022-08-05T09:29:56;5.90;;;4.00;;
13698;SDS011;6921;53.642;9.956;2022-08-05T09:32:05;5.13;;;3.83;;
13698;SDS011;6921;53.642;9.956;2022-08-05T09:34:31;3.75;;;3.45;;
13698;SDS011;6921;53.642;9.956;2022-08-05T09:36:47;4.63;;;3.58;;
13698;SDS011;6921;53.642;9.956;2022-08-05T09:38:57;6.50;;;3.70;;
13698;SDS011;6921;53.642;9.956;2022-08-05T09:41:01;5.38;;;3.40;;
13698;SDS011;6921;53.642;9.956;2022-08-05T09:43:05;5.93;;;4.00;;
13698;SDS011;6921;53.642;9.956;2022-08-05T09:45:12;7.82;;;4.07;;
13698;SDS011;6921;53.642;9.956;2022-08-05T09:47:18;7.70;;;4.07;;
13698;SDS011;6921;53.642;9.956;2022-08-05T09:49:22;5.63;;;3.58;;
13698;SDS011;6921;53.642;9.956;2022-08-05T09:51:40;3.85;;;3.55;;
13698;SDS011;6921;53.642;9.956;2022-08-05T09:53:47;4.38;;;3.85;;
13698;SDS011;6921;53.642;9.956;2022-08-05T09:55:56;6.38;;;3.50;;
13698;SDS011;6921;53.642;9.956;2022-08-05T09:58:08;5.50;;;3.33;;
13698;SDS011;6921;53.642;9.956;2022-08-05T10:00:14;3.28;;;2.97;;
13698;SDS011;6921;53.642;9.956;2022-08-05T10:02:29;4.15;;;2.80;;
13698;SDS011;6921;53.642;9.956;2022-08-05T10:04:35;4.80;;;2.75;;
13698;SDS011;6921;53.642;9.956;2022-08-05T10:06:42;3.60;;;2.60;;
13698;SDS011;6921;53.642;9.956;2022-08-05T10:08:50;3.33;;;2.60;;
13698;SDS011;6921;53.642;9.956;2022-08-05T10:10:54;2.55;;;2.35;;
13698;SDS011;6921;53.642;9.956;2022-08-05T10:12:58;4.50;;;2.50;;
13698;SDS011;6921;53.642;9.956;2022-08-05T10:15:11;4.85;;;2.88;;
13698;SDS011;6921;53.642;9.956;2022-08-05T10:17:18;5.38;;;2.80;;
13698;SDS011;6921;53.642;9.956;2022-08-05T10:19:39;4.43;;;2.88;;
13698;SDS011;6921;53.642;9.956;2022-08-05T10:22:02;3.17;;;2.90;;
13698;SDS011;6921;53.642;9.956;2022-08-05T10:24:06;4.43;;;3.20;;
13698;SDS011;6921;53.642;9.956;2022-08-05T10:26:11;4.22;;;3.65;;
13698;SDS011;6921;53.642;9.956;2022-08-05T10:28:15;3.70;;;3.33;;
13698;SDS011;6921;53.642;9.956;2022-08-05T10:30:19;4.75;;;3.33;;
13698;SDS011;6921;53.642;9.956;2022-08-05T10:32:43;3.60;;;3.30;;
13698;SDS011;6921;53.642;9.956;2022-08-05T10:34:56;4.38;;;3.67;;
13698;SDS011;6921;53.642;9.956;2022-08-05T10:37:01;4.45;;;3.78;;
13698;SDS011;6921;53.642;9.956;2022-08-05T10:39:06;4.97;;;3.80;;
13698;SDS011;6921;53.642;9.956;2022-08-05T10:41:12;6.13;;;3.53;;
13698;SDS011;6921;53.642;9.956;2022-08-05T10:43:23;4.70;;;3.40;;
13698;SDS011;6921;53.642;9.956;2022-08-05T10:45:31;5.43;;;2.90;;
13698;SDS011;6921;53.642;9.956;2022-08-05T10:47:40;4.03;;;2.60;;
13698;SDS011;6921;53.642;9.956;2022-08-05T10:50:02;3.05;;;2.08;;
13698;SDS011;6921;53.642;9.956;2022-08-05T10:52:08;2.25;;;2.03;;
13698;SDS011;6921;53.642;9.956;2022-08-05T10:54:12;3.33;;;1.92;;
13698;SDS011;6921;53.642;9.956;2022-08-05T10:56:24;2.50;;;2.30;;
13698;SDS011;6921;53.642;9.956;2022-08-05T10:58:28;3.35;;;2.45;;
13698;SDS011;6921;53.642;9.956;2022-08-05T11:00:36;3.90;;;2.55;;
13698;SDS011;6921;53.642;9.956;2022-08-05T11:05:25;2.33;;;2.13;;
13698;SDS011;6921;53.642;9.956;2022-08-05T11:07:29;3.95;;;2.20;;
13698;SDS011;6921;53.642;9.956;2022-08-05T11:09:53;3.08;;;2.40;;
13698;SDS011;6921;53.642;9.956;2022-08-05T11:12:04;2.72;;;2.53;;
13698;SDS011;6921;53.642;9.956;2022-08-05T11:14:09;3.05;;;1.85;;
13698;SDS011;6921;53.642;9.956;2022-08-05T11:16:19;2.35;;;2.08;;
13698;SDS011;6921;53.642;9.956;2022-08-05T11:18:25;2.65;;;2.33;;
13698;SDS011;6921;53.642;9.956;2022-08-05T11:20:32;4.00;;;2.30;;
13698;SDS011;6921;53.642;9.956;2022-08-05T11:22:38;3.88;;;1.90;;
13698;SDS011;6921;53.642;9.956;2022-08-05T11:24:42;5.38;;;2.35;;
13698;SDS011;6921;53.642;9.956;2022-08-05T11:29:14;3.42;;;2.45;;
13698;SDS011;6921;53.642;9.956;2022-08-05T11:31:32;4.68;;;2.55;;
13698;SDS011;6921;53.642;9.956;2022-08-05T11:33:56;2.72;;;2.45;;
13698;SDS011;6921;53.642;9.956;2022-08-05T11:36:01;3.15;;;2.80;;
13698;SDS011;6921;53.642;9.956;2022-08-05T11:38:08;5.70;;;2.75;;
13698;SDS011;6921;53.642;9.956;2022-08-05T11:42:49;3.50;;;2.63;;
13698;SDS011;6921;53.642;9.956;2022-08-05T11:44:54;4.35;;;3.13;;
13698;SDS011;6921;53.642;9.956;2022-08-05T11:47:03;5.22;;;3.15;;
13698;SDS011;6921;53.642;9.956;2022-08-05T11:49:11;3.58;;;3.20;;
13698;SDS011;6921;53.642;9.956;2022-08-05T11:51:16;6.35;;;3.38;;
13698;SDS011;6921;53.642;9.956;2022-08-05T11:53:39;7.00;;;3.00;;
13698;SDS011;6921;53.642;9.956;2022-08-05T11:58:04;4.15;;;3.10;;
13698;SDS011;6921;53.642;9.956;2022-08-05T12:00:23;3.50;;;3.20;;
13698;SDS011;6921;53.642;9.956;2022-08-05T12:02:28;4.13;;;3.47;;
13698;SDS011;6921;53.642;9.956;2022-08-05T12:04:37;6.55;;;3.22;;
13698;SDS011;6921;53.642;9.956;2022-08-05T12:06:42;5.80;;;3.35;;
13698;SDS011;6921;53.642;9.956;2022-08-05T12:08:50;6.50;;;3.85;;
13698;SDS011;6921;53.642;9.956;2022-08-05T12:10:54;5.85;;;4.32;;
13698;SDS011;6921;53.642;9.956;2022-08-05T12:13:02;5.20;;;4.68;;
13698;SDS011;6921;53.642;9.956;2022-08-05T12:15:17;7.95;;;5.22;;
13698;SDS011;6921;53.642;9.956;2022-08-05T12:17:36;7.25;;;4.43;;
13698;SDS011;6921;53.642;9.956;2022-08-05T12:19:59;4.78;;;4.30;;
13698;SDS011;6921;53.642;9.956;2022-08-05T12:22:20;4.95;;;4.22;;
13698;SDS011;6921;53.642;9.956;2022-08-05T12:24:23;6.75;;;4.57;;
13698;SDS011;6921;53.642;9.956;2022-08-05T12:26:29;4.68;;;4.15;;
13698;SDS011;6921;53.642;9.956;2022-08-05T12:28:33;4.32;;;3.90;;
13698;SDS011;6921;53.642;9.956;2022-08-05T12:30:37;5.32;;;3.95;;
13698;SDS011;6921;53.642;9.956;2022-08-05T12:32:42;4.38;;;3.20;;
13698;SDS011;6921;53.642;9.956;2022-08-05T12:34:49;4.32;;;3.10;;
13698;SDS011;6921;53.642;9.956;2022-08-05T12:36:53;3.95;;;3.40;;
13698;SDS011;6921;53.642;9.956;2022-08-05T12:38:58;4.85;;;3.35;;
13698;SDS011;6921;53.642;9.956;2022-08-05T12:41:02;5.25;;;3.40;;
13698;SDS011;6921;53.642;9.956;2022-08-05T12:43:07;5.47;;;3.50;;
13698;SDS011;6921;53.642;9.956;2022-08-05T12:45:11;3.40;;;2.67;;
13698;SDS011;6921;53.642;9.956;2022-08-05T12:47:25;5.50;;;2.72;;
13698;SDS011;6921;53.642;9.956;2022-08-05T12:49:40;4.57;;;2.75;;
13698;SDS011;6921;53.642;9.956;2022-08-05T12:52:03;3.22;;;2.53;;
13698;SDS011;6921;53.642;9.956;2022-08-05T12:54:18;3.10;;;2.25;;
13698;SDS011;6921;53.642;9.956;2022-08-05T12:56:23;3.45;;;2.50;;
13698;SDS011;6921;53.642;9.956;2022-08-05T12:58:35;2.75;;;2.00;;
13698;SDS011;6921;53.642;9.956;2022-08-05T13:00:53;3.83;;;2.38;;
13698;SDS011;6921;53.642;9.956;2022-08-05T13:03:16;3.95;;;2.88;;
13698;SDS011;6921;53.642;9.956;2022-08-05T13:05:19;2.38;;;2.15;;
13698;SDS011;6921;53.642;9.956;2022-08-05T13:07:23;3.70;;;2.17;;
13698;SDS011;6921;53.642;9.956;2022-08-05T13:09:49;2.42;;;1.95;;
13698;SDS011;6921;53.642;9.956;2022-08-05T13:12:00;1.98;;;1.77;;
13698;SDS011;6921;53.642;9.956;2022-08-05T13:14:08;2.42;;;1.85;;
13698;SDS011;6921;53.642;9.956;2022-08-05T13:16:15;2.35;;;1.63;;